Time;durP1;ratioP1;P1;durP2;ratioP2;P2;SDS_P1;SDS_P2;PMS_P1;PMS_P2;Temp;Humidity;BMP_temperature;BMP_pressure;BME280_temperature;BME280_humidity;BME280_pressure;Samples;Min_cycle;Max_cycle;Signal;HPM_P1;HPM_P2
2023/09/01 00:02:43;;;;;;;9.57;6.15;;;;;;;;;;5023154;28;20049;-58
2023/09/01 00:05:34;;;;;;;10.88;6.88;;;;;;;;;;5032167;28;20115;-58
2023/09/01 00:08:27;;;;;;;10.15;6.57;;;;;;;;;;5029111;28;20084;-57
2023/09/01 00:11:16;;;;;;;15.40;6.43;;;;;;;;;;5023180;28;20271;-60
2023/09/01 00:14:09;;;;;;;8.45;6.22;;;;;;;;;;5026811;28;20069;-57
2023/09/01 00:17:03;;;;;;;15.27;6.43;;;;;;;;;;5030953;28;20057;-57
2023/09/01 00:20:04;;;;;;;13.95;6.25;;;;;;;;;;5030339;28;20066;-56
2023/09/01 00:22:51;;;;;;;15.68;6.85;;;;;;;;;;5023293;28;20496;-55
2023/09/01 00:25:45;;;;;;;10.93;6.43;;;;;;;;;;5020177;28;20053;-57
2023/09/01 00:28:36;;;;;;;9.68;6.25;;;;;;;;;;5027894;28;20061;-63
2023/09/01 00:31:32;;;;;;;9.80;6.22;;;;;;;;;;5029924;28;20053;-52
2023/09/01 00:34:18;;;;;;;10.32;6.80;;;;;;;;;;5015368;28;20053;-51
2023/09/01 00:37:11;;;;;;;13.88;7.45;;;;;;;;;;5019964;28;20115;-52
2023/09/01 00:39:59;;;;;;;17.35;7.47;;;;;;;;;;5025521;28;20468;-58
2023/09/01 00:42:52;;;;;;;14.55;8.05;;;;;;;;;;5029052;28;20389;-59
2023/09/01 00:45:39;;;;;;;11.18;6.97;;;;;;;;;;5030989;28;20058;-60
2023/09/01 00:48:34;;;;;;;12.68;6.55;;;;;;;;;;5027656;28;20124;-59
2023/09/01 00:51:21;;;;;;;8.57;5.90;;;;;;;;;;5022573;28;20061;-59
2023/09/01 00:54:15;;;;;;;14.45;6.32;;;;;;;;;;5020648;28;20135;-59
2023/09/01 00:57:03;;;;;;;14.93;6.43;;;;;;;;;;5028193;28;20080;-47
2023/09/01 00:59:57;;;;;;;8.65;5.82;;;;;;;;;;5028738;28;20042;-49
2023/09/01 01:02:45;;;;;;;11.27;7.22;;;;;;;;;;5025603;28;20080;-56
2023/09/01 01:05:40;;;;;;;10.70;6.47;;;;;;;;;;5028181;28;20103;-56
2023/09/01 01:08:36;;;;;;;9.50;6.30;;;;;;;;;;5029049;28;20112;-57
2023/09/01 01:11:48;;;;;;;8.55;5.95;;;;;;;;;;5030310;28;20060;-57
2023/09/01 01:14:48;;;;;;;10.30;6.50;;;;;;;;;;5028289;28;20079;-57
2023/09/01 01:17:39;;;;;;;8.65;5.97;;;;;;;;;;5016893;28;20155;-59
2023/09/01 01:20:40;;;;;;;11.23;6.32;;;;;;;;;;5006505;28;20058;-58
2023/09/01 01:23:35;;;;;;;11.60;6.60;;;;;;;;;;5007184;28;20505;-59
2023/09/01 01:26:23;;;;;;;10.43;6.05;;;;;;;;;;5009673;28;20058;-58
2023/09/01 01:29:16;;;;;;;9.98;5.72;;;;;;;;;;5009192;28;20693;-58
2023/09/01 01:32:03;;;;;;;11.65;6.53;;;;;;;;;;5008157;28;20053;-59
2023/09/01 01:35:15;;;;;;;11.40;6.72;;;;;;;;;;5010302;28;20182;-55
2023/09/01 01:37:50;;;;;;;10.90;6.22;;;;;;;;;;5009103;28;20060;-56
2023/09/01 01:40:45;;;;;;;14.48;6.72;;;;;;;;;;5009688;28;20058;-57
2023/09/01 01:43:33;;;;;;;11.52;6.97;;;;;;;;;;5006447;28;20053;-55
2023/09/01 01:46:27;;;;;;;12.77;6.47;;;;;;;;;;5010062;28;20049;-59
2023/09/01 01:49:15;;;;;;;12.20;6.68;;;;;;;;;;5006468;28;20057;-59
2023/09/01 01:52:08;;;;;;;14.63;6.25;;;;;;;;;;5008593;28;20096;-58
2023/09/01 01:54:56;;;;;;;14.40;6.88;;;;;;;;;;5007258;28;20058;-59
2023/09/01 01:57:50;;;;;;;9.48;6.07;;;;;;;;;;5009748;28;20058;-59
2023/09/01 02:00:37;;;;;;;9.60;5.57;;;;;;;;;;5008307;28;20053;-59
2023/09/01 02:03:32;;;;;;;7.75;5.45;;;;;;;;;;5006368;28;20049;-48
2023/09/01 02:06:19;;;;;;;15.88;6.60;;;;;;;;;;5007197;28;20058;-49
2023/09/01 02:09:14;;;;;;;10.93;7.68;;;;;;;;;;5001369;28;20133;-50
2023/09/01 02:12:01;;;;;;;15.88;7.15;;;;;;;;;;5005209;28;20580;-52
2023/09/01 02:14:55;;;;;;;17.30;7.95;;;;;;;;;;5005398;28;20072;-53
2023/09/01 02:17:43;;;;;;;13.75;7.53;;;;;;;;;;5004512;28;20049;-63
2023/09/01 02:20:37;;;;;;;17.33;8.48;;;;;;;;;;5007221;28;20054;-64
2023/09/01 02:23:24;;;;;;;15.25;7.32;;;;;;;;;;5004994;28;20543;-62
2023/09/01 02:26:21;;;;;;;13.32;8.10;;;;;;;;;;5008492;28;20058;-63
2023/09/01 02:29:08;;;;;;;14.07;7.93;;;;;;;;;;5006766;28;20072;-63
2023/09/01 02:32:02;;;;;;;14.68;7.82;;;;;;;;;;5002350;28;20088;-59
2023/09/01 02:34:30;;;;;;;10.85;7.05;;;;;;;;;;5002690;28;20117;-60
2023/09/01 02:37:05;;;;;;;11.35;6.80;;;;;;;;;;5007285;28;20133;-59
2023/09/01 02:39:52;;;;;;;17.35;7.22;;;;;;;;;;5006989;28;20180;-60
2023/09/01 02:42:46;;;;;;;19.85;7.50;;;;;;;;;;5008497;28;20077;-59
2023/09/01 02:45:33;;;;;;;11.25;6.72;;;;;;;;;;5007001;28;20054;-59
2023/09/01 02:48:27;;;;;;;15.90;6.82;;;;;;;;;;5006090;28;20052;-59
2023/09/01 02:51:14;;;;;;;12.15;7.30;;;;;;;;;;5003831;28;20062;-59
2023/09/01 02:54:08;;;;;;;15.38;7.70;;;;;;;;;;5005533;28;20049;-59
2023/09/01 02:56:35;;;;;;;12.52;7.07;;;;;;;;;;4999776;28;20061;-58
2023/09/01 02:59:29;;;;;;;11.70;6.93;;;;;;;;;;5007867;28;20508;-54
2023/09/01 03:02:16;;;;;;;11.43;6.60;;;;;;;;;;5002986;28;20105;-59
2023/09/01 03:05:10;;;;;;;10.70;5.00;;;;;;;;;;5005898;28;20049;-51
2023/09/01 03:07:58;;;;;;;17.60;6.70;;;;;;;;;;5008514;28;20464;-47
2023/09/01 03:10:51;;;;;;;14.20;6.95;;;;;;;;;;5002372;28;20085;-49
2023/09/01 03:13:44;;;;;;;10.88;6.15;;;;;;;;;;5006797;28;20739;-49
2023/09/01 03:16:52;;;;;;;8.50;5.20;;;;;;;;;;5003557;28;20141;-49
2023/09/01 03:19:46;;;;;;;17.38;7.35;;;;;;;;;;5006410;28;20144;-48
2023/09/01 03:22:40;;;;;;;20.10;8.57;;;;;;;;;;5007387;28;20109;-50
2023/09/01 03:25:27;;;;;;;19.85;8.50;;;;;;;;;;5008573;28;20112;-50
2023/09/01 03:28:20;;;;;;;14.82;7.88;;;;;;;;;;5009691;28;20097;-59
2023/09/01 03:31:11;;;;;;;15.15;7.18;;;;;;;;;;5008530;28;20056;-52
2023/09/01 03:34:07;;;;;;;11.35;6.07;;;;;;;;;;5011754;28;20061;-48
2023/09/01 03:36:53;;;;;;;10.05;5.90;;;;;;;;;;5008782;28;20137;-50
2023/09/01 03:39:46;;;;;;;20.00;7.35;;;;;;;;;;5011141;28;20568;-49
2023/09/01 03:42:33;;;;;;;11.70;7.00;;;;;;;;;;5008186;28;20046;-52
2023/09/01 03:45:27;;;;;;;13.27;8.02;;;;;;;;;;5009688;28;20049;-49
2023/09/01 03:48:14;;;;;;;13.85;8.25;;;;;;;;;;5007265;28;20060;-59
2023/09/01 03:51:12;;;;;;;14.45;8.27;;;;;;;;;;5008147;28;20108;-59
2023/09/01 03:53:59;;;;;;;16.10;8.00;;;;;;;;;;5006342;28;20057;-59
2023/09/01 03:56:52;;;;;;;20.85;9.27;;;;;;;;;;5009612;28;20436;-56
2023/09/01 03:59:41;;;;;;;19.40;8.85;;;;;;;;;;5008862;28;20101;-60
2023/09/01 04:02:34;;;;;;;32.65;9.95;;;;;;;;;;5012803;28;20108;-60
2023/09/01 04:05:21;;;;;;;94.03;11.63;;;;;;;;;;5008524;28;20060;-59
2023/09/01 04:08:14;;;;;;;83.63;10.82;;;;;;;;;;5008949;28;20474;-60
2023/09/01 04:11:08;;;;;;;20.15;6.43;;;;;;;;;;4997611;28;20409;-60
2023/09/01 04:14:03;;;;;;;13.15;6.80;;;;;;;;;;4996639;28;22182;-60
2023/09/01 04:16:57;;;;;;;68.20;8.65;;;;;;;;;;4998634;28;20050;-53
2023/09/01 04:19:57;;;;;;;66.70;9.68;;;;;;;;;;5006689;28;20054;-60
2023/09/01 04:22:51;;;;;;;67.40;8.32;;;;;;;;;;5006798;28;20073;-60
2023/09/01 04:25:49;;;;;;;138.90;9.07;;;;;;;;;;4999406;28;20435;-60
2023/09/01 04:28:36;;;;;;;193.77;10.52;;;;;;;;;;5000131;28;20161;-61
2023/09/01 04:31:32;;;;;;;161.65;15.60;;;;;;;;;;5003355;28;20062;-60
2023/09/01 04:34:19;;;;;;;78.22;10.45;;;;;;;;;;5008987;28;20057;-52
2023/09/01 04:37:12;;;;;;;120.18;14.00;;;;;;;;;;5005692;28;20505;-59
2023/09/01 04:39:59;;;;;;;14.73;7.10;;;;;;;;;;5006142;28;20049;-59
2023/09/01 04:42:53;;;;;;;15.95;5.90;;;;;;;;;;5004070;28;20109;-60
2023/09/01 04:45:47;;;;;;;41.60;6.35;;;;;;;;;;5006224;28;20474;-60
2023/09/01 04:48:34;;;;;;;14.55;6.38;;;;;;;;;;5002148;28;20061;-59
2023/09/01 04:51:08;;;;;;;7.18;4.78;;;;;;;;;;5009584;28;20050;-59
2023/09/01 04:53:36;;;;;;;;;;;;;;;;;;5000913;28;20062;-57
2023/09/01 04:56:30;;;;;;;19.63;6.55;;;;;;;;;;5005695;28;19933;-57
2023/09/01 04:59:17;;;;;;;53.40;7.10;;;;;;;;;;5002397;28;20050;-56
2023/09/01 05:02:10;;;;;;;57.72;7.03;;;;;;;;;;5000714;28;20077;-45
2023/09/01 05:04:58;;;;;;;81.38;8.88;;;;;;;;;;5007911;28;20490;-54
2023/09/01 05:07:51;;;;;;;60.97;7.07;;;;;;;;;;5005375;28;20050;-56
2023/09/01 05:10:39;;;;;;;74.65;6.40;;;;;;;;;;5007571;28;20105;-56
2023/09/01 05:13:33;;;;;;;45.80;5.38;;;;;;;;;;5005687;28;20069;-57
2023/09/01 05:16:26;;;;;;;62.95;6.63;;;;;;;;;;5009185;28;20124;-52
2023/09/01 05:19:27;;;;;;;28.48;4.15;;;;;;;;;;5011143;28;20089;-56
2023/09/01 05:22:14;;;;;;;17.15;4.80;;;;;;;;;;5005124;28;20104;-59
2023/09/01 05:25:08;;;;;;;6.88;4.45;;;;;;;;;;5004965;28;20141;-59
2023/09/01 05:27:56;;;;;;;11.85;4.43;;;;;;;;;;5005540;28;20121;-59
2023/09/01 05:30:49;;;;;;;14.40;4.47;;;;;;;;;;5006182;28;20509;-55
2023/09/01 05:33:37;;;;;;;11.77;4.97;;;;;;;;;;5006738;28;20046;-50
2023/09/01 05:36:31;;;;;;;6.38;4.05;;;;;;;;;;5004270;28;20056;-50
2023/09/01 05:39:18;;;;;;;7.43;4.47;;;;;;;;;;5007344;28;20796;-46
2023/09/01 05:42:14;;;;;;;5.85;4.15;;;;;;;;;;5008477;28;20087;-50
2023/09/01 05:44:59;;;;;;;5.60;4.05;;;;;;;;;;5006723;28;20081;-51
2023/09/01 05:47:53;;;;;;;6.88;3.80;;;;;;;;;;5007691;28;20069;-46
2023/09/01 05:50:42;;;;;;;4.88;3.15;;;;;;;;;;5004344;28;20050;-59
2023/09/01 05:53:34;;;;;;;4.15;3.40;;;;;;;;;;5009669;28;20473;-59
2023/09/01 05:56:21;;;;;;;3.97;3.17;;;;;;;;;;5007650;28;20141;-59
2023/09/01 05:59:15;;;;;;;7.75;3.33;;;;;;;;;;5003116;28;20054;-60
2023/09/01 06:02:02;;;;;;;7.90;3.70;;;;;;;;;;5002891;28;20568;-59
2023/09/01 06:04:56;;;;;;;4.57;3.35;;;;;;;;;;5006189;28;20136;-59
2023/09/01 06:07:43;;;;;;;5.03;3.83;;;;;;;;;;5009096;28;20057;-59
2023/09/01 06:10:36;;;;;;;7.00;3.50;;;;;;;;;;5005830;28;20061;-60
2023/09/01 06:13:30;;;;;;;3.78;3.08;;;;;;;;;;5006582;28;20109;-59
2023/09/01 06:16:25;;;;;;;2.97;2.67;;;;;;;;;;5008703;28;20147;-59
2023/09/01 06:19:25;;;;;;;4.18;3.22;;;;;;;;;;5006660;28;20058;-60
2023/09/01 06:22:21;;;;;;;8.00;3.80;;;;;;;;;;5009068;28;20111;-59
2023/09/01 06:25:14;;;;;;;3.10;2.80;;;;;;;;;;5011293;28;20105;-59
2023/09/01 06:28:01;;;;;;;6.13;4.18;;;;;;;;;;5005038;28;20470;-61
2023/09/01 06:30:54;;;;;;;4.38;3.00;;;;;;;;;;5007072;28;20054;-51
2023/09/01 06:33:49;;;;;;;4.10;2.33;;;;;;;;;;5008731;28;20046;-50
2023/09/01 06:36:42;;;;;;;3.55;2.42;;;;;;;;;;5009446;28;20424;-48
2023/09/01 06:39:30;;;;;;;3.55;2.95;;;;;;;;;;5008927;28;20058;-50
2023/09/01 06:42:24;;;;;;;5.32;2.50;;;;;;;;;;5010453;28;20053;-49
2023/09/01 06:45:11;;;;;;;3.30;3.00;;;;;;;;;;5011501;28;20106;-55
2023/09/01 06:48:05;;;;;;;3.30;3.00;;;;;;;;;;5006467;28;20045;-56
2023/09/01 06:50:52;;;;;;;3.72;1.92;;;;;;;;;;5009207;28;20058;-53
2023/09/01 06:53:45;;;;;;;2.92;2.70;;;;;;;;;;5007861;28;20045;-56
2023/09/01 06:56:33;;;;;;;4.10;3.67;;;;;;;;;;5012039;28;20072;-46
2023/09/01 06:59:27;;;;;;;5.63;4.18;;;;;;;;;;5011277;28;20136;-59
2023/09/01 07:02:14;;;;;;;5.30;4.03;;;;;;;;;;5010665;28;20046;-59
2023/09/01 07:05:08;;;;;;;4.10;3.70;;;;;;;;;;5013641;28;20042;-59
2023/09/01 07:07:55;;;;;;;4.43;3.67;;;;;;;;;;5012587;28;20065;-59
2023/09/01 07:10:48;;;;;;;9.68;4.50;;;;;;;;;;5015256;28;20046;-59
2023/09/01 07:13:43;;;;;;;9.02;4.40;;;;;;;;;;5013380;28;20056;-50
2023/09/01 07:16:36;;;;;;;7.95;4.28;;;;;;;;;;5011394;28;20134;-51
2023/09/01 07:19:30;;;;;;;5.63;3.90;;;;;;;;;;5010587;28;20062;-51
2023/09/01 07:22:23;;;;;;;8.20;3.78;;;;;;;;;;5011059;28;20096;-48
2023/09/01 07:25:13;;;;;;;6.15;4.40;;;;;;;;;;5008498;28;20049;-63
2023/09/01 07:28:05;;;;;;;5.28;4.22;;;;;;;;;;5010169;28;20050;-59
2023/09/01 07:30:53;;;;;;;5.15;3.53;;;;;;;;;;5003283;28;20053;-59
2023/09/01 07:33:45;;;;;;;5.22;3.80;;;;;;;;;;5003437;28;20065;-59
2023/09/01 07:36:40;;;;;;;6.10;3.90;;;;;;;;;;5007950;28;20915;-59
2023/09/01 07:39:35;;;;;;;4.93;3.65;;;;;;;;;;5006250;28;20053;-60
2023/09/01 07:42:22;;;;;;;3.78;3.10;;;;;;;;;;5011839;28;20081;-47
2023/09/01 07:45:15;;;;;;;9.50;3.53;;;;;;;;;;5007620;28;20054;-48
2023/09/01 07:48:02;;;;;;;5.57;3.60;;;;;;;;;;5006198;28;20080;-50
2023/09/01 07:50:56;;;;;;;5.10;3.10;;;;;;;;;;5006604;28;20494;-46
2023/09/01 07:53:44;;;;;;;7.97;3.67;;;;;;;;;;5005851;28;20050;-59
2023/09/01 07:56:37;;;;;;;8.00;3.70;;;;;;;;;;5005841;28;20100;-56
2023/09/01 07:59:25;;;;;;;5.65;3.30;;;;;;;;;;5006495;28;20563;-56
2023/09/01 08:02:19;;;;;;;5.88;3.42;;;;;;;;;;5007155;28;20053;-57
2023/09/01 08:05:06;;;;;;;6.53;3.30;;;;;;;;;;5003170;28;20100;-57
2023/09/01 08:07:59;;;;;;;9.63;3.53;;;;;;;;;;5007124;28;20413;-56
2023/09/01 08:10:47;;;;;;;7.68;3.50;;;;;;;;;;5005978;28;20509;-60
2023/09/01 08:13:40;;;;;;;8.40;3.72;;;;;;;;;;5007218;28;20501;-60
2023/09/01 08:16:28;;;;;;;6.72;3.83;;;;;;;;;;5006902;28;20053;-60
2023/09/01 08:19:28;;;;;;;7.13;3.47;;;;;;;;;;5005093;28;20050;-60
2023/09/01 08:22:16;;;;;;;5.03;3.08;;;;;;;;;;5001861;28;20109;-57
2023/09/01 08:25:10;;;;;;;6.20;3.28;;;;;;;;;;5004644;28;20057;-56
2023/09/01 08:27:57;;;;;;;5.32;3.28;;;;;;;;;;5003990;28;20078;-56
2023/09/01 08:30:50;;;;;;;6.05;3.33;;;;;;;;;;5005354;28;20167;-56
2023/09/01 08:33:45;;;;;;;8.85;3.08;;;;;;;;;;5003012;28;20753;-56
2023/09/01 08:36:38;;;;;;;9.18;3.45;;;;;;;;;;5004538;28;20045;-56
2023/09/01 08:39:33;;;;;;;8.20;3.22;;;;;;;;;;5006087;28;20049;-56
2023/09/01 08:42:27;;;;;;;11.60;4.15;;;;;;;;;;4997164;28;20117;-57
2023/09/01 08:45:21;;;;;;;7.30;3.85;;;;;;;;;;5005661;28;20136;-57
2023/09/01 08:48:19;;;;;;;7.22;3.38;;;;;;;;;;5003990;28;20054;-55
2023/09/01 08:51:08;;;;;;;4.95;3.20;;;;;;;;;;5005855;28;20085;-58
2023/09/01 08:54:00;;;;;;;10.40;3.25;;;;;;;;;;5003383;28;20045;-49
2023/09/01 08:56:48;;;;;;;4.10;3.22;;;;;;;;;;5006077;28;20045;-49
2023/09/01 08:59:43;;;;;;;9.80;3.55;;;;;;;;;;5003085;28;20148;-51
2023/09/01 09:02:30;;;;;;;6.30;3.17;;;;;;;;;;5002651;28;20685;-49
2023/09/01 09:05:34;;;;;;;8.63;3.20;;;;;;;;;;5003429;28;20041;-45
2023/09/01 09:08:22;;;;;;;10.05;3.13;;;;;;;;;;5004037;28;20461;-58
2023/09/01 09:11:15;;;;;;;5.53;3.20;;;;;;;;;;5003358;28;20097;-57
2023/09/01 09:14:10;;;;;;;7.25;2.95;;;;;;;;;;5004588;28;20046;-58
2023/09/01 09:17:44;;;;;;;4.82;3.45;;;;;;;;;;5005224;28;20621;-59
2023/09/01 09:20:39;;;;;;;7.22;3.20;;;;;;;;;;5006468;28;20156;-58
2023/09/01 09:23:43;;;;;;;7.97;3.28;;;;;;;;;;5010430;28;20739;-60
2023/09/01 09:26:57;;;;;;;5.30;3.30;;;;;;;;;;5006156;28;20053;-61
2023/09/01 09:29:49;;;;;;;10.15;3.25;;;;;;;;;;5009645;28;20527;-60
2023/09/01 09:32:37;;;;;;;5.80;2.95;;;;;;;;;;5007558;28;20049;-60
2023/09/01 09:35:31;;;;;;;5.97;2.95;;;;;;;;;;5009142;28;20056;-60
2023/09/01 09:38:18;;;;;;;5.68;3.10;;;;;;;;;;5010248;28;20599;-59
2023/09/01 09:41:11;;;;;;;3.42;2.67;;;;;;;;;;5006987;28;20054;-59
2023/09/01 09:44:07;;;;;;;6.18;3.10;;;;;;;;;;5007942;28;20041;-59
2023/09/01 09:46:54;;;;;;;8.75;3.00;;;;;;;;;;5006893;28;20541;-60
2023/09/01 09:49:49;;;;;;;5.43;2.80;;;;;;;;;;5005699;28;20042;-50
2023/09/01 09:52:37;;;;;;;4.47;2.22;;;;;;;;;;5006034;28;20139;-46
2023/09/01 09:55:31;;;;;;;6.30;2.90;;;;;;;;;;5001565;28;20045;-51
2023/09/01 09:58:19;;;;;;;7.68;2.75;;;;;;;;;;5004895;28;20113;-49
2023/09/01 10:01:16;;;;;;;7.82;2.95;;;;;;;;;;5009287;28;20516;-49
2023/09/01 10:04:07;;;;;;;4.95;2.50;;;;;;;;;;5011738;28;20061;-50
2023/09/01 10:07:01;;;;;;;5.78;2.67;;;;;;;;;;5008226;28;20050;-59
2023/09/01 10:09:48;;;;;;;7.75;2.30;;;;;;;;;;5009359;28;20050;-59
2023/09/01 10:12:43;;;;;;;9.18;2.47;;;;;;;;;;5010115;28;20053;-59
2023/09/01 10:15:32;;;;;;;5.22;2.70;;;;;;;;;;5007092;28;20120;-62
2023/09/01 10:18:31;;;;;;;7.60;2.40;;;;;;;;;;5005625;28;20324;-46
2023/09/01 10:21:19;;;;;;;5.45;2.30;;;;;;;;;;5005440;28;20049;-48
2023/09/01 10:24:14;;;;;;;4.13;2.33;;;;;;;;;;5006385;28;20100;-49
2023/09/01 10:27:08;;;;;;;8.93;2.30;;;;;;;;;;5005650;28;20450;-46
2023/09/01 10:30:04;;;;;;;7.07;2.92;;;;;;;;;;5004088;28;20112;-47
2023/09/01 10:32:49;;;;;;;5.10;2.08;;;;;;;;;;5002221;28;20058;-58
2023/09/01 10:35:46;;;;;;;4.50;1.95;;;;;;;;;;5004475;28;20533;-58
2023/09/01 10:38:33;;;;;;;5.28;2.08;;;;;;;;;;5006120;28;20482;-58
2023/09/01 10:41:48;;;;;;;3.15;2.08;;;;;;;;;;5003375;28;20046;-58
2023/09/01 10:44:44;;;;;;;3.65;1.85;;;;;;;;;;5004656;28;20045;-58
2023/09/01 10:47:51;;;;;;;2.92;1.95;;;;;;;;;;5006040;28;20054;-61
2023/09/01 10:50:34;;;;;;;2.90;1.77;;;;;;;;;;5001927;28;20046;-62
2023/09/01 10:53:29;;;;;;;6.45;1.70;;;;;;;;;;5002335;28;20061;-62
2023/09/01 10:56:15;;;;;;;3.65;2.40;;;;;;;;;;5003251;28;20054;-61
2023/09/01 10:59:09;;;;;;;5.22;1.85;;;;;;;;;;5004395;28;20121;-62
2023/09/01 11:01:56;;;;;;;5.40;1.92;;;;;;;;;;5003406;28;20109;-60
2023/09/01 11:04:50;;;;;;;2.95;1.60;;;;;;;;;;5005402;28;20109;-60
2023/09/01 11:08:02;;;;;;;4.63;1.58;;;;;;;;;;5008645;28;20050;-59
2023/09/01 11:10:50;;;;;;;4.10;1.77;;;;;;;;;;5006805;28;20498;-60
2023/09/01 11:13:43;;;;;;;3.20;1.63;;;;;;;;;;5004296;28;20505;-60
2023/09/01 11:16:18;;;;;;;1.77;1.40;;;;;;;;;;5005421;28;20116;-47
2023/09/01 11:19:10;;;;;;;3.58;1.40;;;;;;;;;;5010633;28;20090;-46
2023/09/01 11:21:38;;;;;;;2.63;1.60;;;;;;;;;;5012330;28;20166;-52
2023/09/01 11:24:32;;;;;;;1.73;1.60;;;;;;;;;;5022075;28;20143;-48
2023/09/01 11:27:19;;;;;;;2.13;1.38;;;;;;;;;;5020180;28;20221;-52
2023/09/01 11:30:13;;;;;;;5.20;1.70;;;;;;;;;;5017028;28;20397;-57
2023/09/01 11:33:10;;;;;;;5.93;2.00;;;;;;;;;;5017154;28;20050;-56
2023/09/01 11:36:04;;;;;;;3.35;1.60;;;;;;;;;;5020561;28;20054;-58
2023/09/01 11:38:52;;;;;;;3.63;1.77;;;;;;;;;;5023119;28;20045;-56
2023/09/01 11:41:46;;;;;;;1.85;1.50;;;;;;;;;;5020828;28;20053;-60
2023/09/01 11:44:33;;;;;;;3.25;1.60;;;;;;;;;;5023910;28;20045;-61
2023/09/01 11:47:27;;;;;;;2.83;1.80;;;;;;;;;;5021006;28;20575;-62
2023/09/01 11:50:14;;;;;;;4.32;1.90;;;;;;;;;;5025020;28;20054;-62
2023/09/01 11:53:08;;;;;;;4.38;1.73;;;;;;;;;;5022525;28;20140;-61
2023/09/01 11:55:58;;;;;;;4.85;1.83;;;;;;;;;;5024632;28;20052;-61
2023/09/01 11:58:51;;;;;;;2.42;1.63;;;;;;;;;;5024543;28;20042;-62
2023/09/01 12:01:41;;;;;;;2.10;1.88;;;;;;;;;;5022695;28;20060;-62
2023/09/01 12:04:32;;;;;;;8.43;1.92;;;;;;;;;;5021841;28;20053;-61
2023/09/01 12:07:26;;;;;;;2.92;1.77;;;;;;;;;;5024313;28;20096;-62
2023/09/01 12:10:21;;;;;;;2.00;1.80;;;;;;;;;;5020882;28;20135;-49
2023/09/01 12:13:11;;;;;;;2.53;1.95;;;;;;;;;;5026350;28;20111;-60
2023/09/01 12:16:04;;;;;;;1.88;1.58;;;;;;;;;;5026490;28;20111;-60
2023/09/01 12:18:54;;;;;;;3.88;1.70;;;;;;;;;;5016143;28;20529;-60
2023/09/01 12:21:46;;;;;;;2.33;1.85;;;;;;;;;;5007212;28;20045;-61
2023/09/01 12:24:36;;;;;;;5.22;1.90;;;;;;;;;;5005405;28;20103;-60
2023/09/01 12:27:28;;;;;;;2.78;1.65;;;;;;;;;;5002831;28;20105;-61
2023/09/01 12:30:15;;;;;;;1.85;1.58;;;;;;;;;;5008476;28;21164;-59
2023/09/01 12:33:09;;;;;;;2.63;1.48;;;;;;;;;;5009728;28;20505;-60
2023/09/01 12:35:56;;;;;;;2.08;1.75;;;;;;;;;;5006508;28;20046;-60
2023/09/01 12:38:30;;;;;;;3.80;1.60;;;;;;;;;;5007272;28;20069;-62
2023/09/01 12:40:58;;;;;;;3.72;1.50;;;;;;;;;;5005132;28;20054;-50
2023/09/01 12:43:52;;;;;;;2.42;1.83;;;;;;;;;;5010858;28;20108;-50
2023/09/01 12:46:39;;;;;;;4.10;1.48;;;;;;;;;;4998868;28;20050;-48
2023/09/01 12:49:36;;;;;;;3.17;1.77;;;;;;;;;;5009673;28;20499;-52
2023/09/01 12:52:23;;;;;;;2.25;1.50;;;;;;;;;;5006342;28;20060;-49
2023/09/01 12:55:17;;;;;;;4.35;2.10;;;;;;;;;;5011512;28;20085;-62
2023/09/01 12:58:05;;;;;;;2.92;1.60;;;;;;;;;;5005509;28;20109;-62
2023/09/01 13:01:05;;;;;;;4.25;1.80;;;;;;;;;;5006865;28;20049;-62
2023/09/01 13:03:52;;;;;;;2.65;1.50;;;;;;;;;;4989893;28;20063;-62
2023/09/01 13:06:45;;;;;;;2.92;1.73;;;;;;;;;;5000169;28;20081;-59
2023/09/01 13:09:41;;;;;;;3.55;1.60;;;;;;;;;;4986428;28;20058;-64
2023/09/01 13:12:27;;;;;;;2.63;1.60;;;;;;;;;;4980790;28;20064;-63
2023/09/01 13:15:21;;;;;;;4.00;1.60;;;;;;;;;;5001670;28;20053;-62
2023/09/01 13:18:31;;;;;;;4.13;1.70;;;;;;;;;;5003819;28;20053;-63
2023/09/01 13:21:26;;;;;;;2.25;1.45;;;;;;;;;;5007146;28;20058;-62
2023/09/01 13:24:20;;;;;;;3.35;1.67;;;;;;;;;;5000798;28;20061;-50
2023/09/01 13:27:07;;;;;;;3.97;1.58;;;;;;;;;;5004553;28;20046;-53
2023/09/01 13:30:00;;;;;;;2.20;1.45;;;;;;;;;;5002472;28;20093;-51
2023/09/01 13:32:55;;;;;;;2.95;1.60;;;;;;;;;;5000921;28;20113;-49
2023/09/01 13:35:49;;;;;;;2.42;1.70;;;;;;;;;;5007115;28;20148;-51
2023/09/01 13:38:36;;;;;;;3.65;1.48;;;;;;;;;;5003277;28;20465;-48
2023/09/01 13:41:30;;;;;;;1.70;1.38;;;;;;;;;;5001453;28;20516;-48
2023/09/01 13:44:24;;;;;;;3.47;1.80;;;;;;;;;;4998102;28;20061;-48
2023/09/01 13:46:51;;;;;;;3.22;1.40;;;;;;;;;;4998218;28;20058;-52
2023/09/01 13:49:45;;;;;;;3.00;1.27;;;;;;;;;;4991948;28;20403;-48
2023/09/01 13:52:32;;;;;;;2.15;1.60;;;;;;;;;;4997844;28;20066;-61
2023/09/01 13:55:46;;;;;;;2.47;1.73;;;;;;;;;;5004503;28;20584;-61
2023/09/01 13:58:40;;;;;;;3.22;1.60;;;;;;;;;;5005609;28;20104;-61
2023/09/01 14:01:35;;;;;;;1.50;1.40;;;;;;;;;;5005319;28;20045;-61
2023/09/01 14:04:22;;;;;;;2.58;1.30;;;;;;;;;;5004305;28;20049;-62
2023/09/01 14:07:17;;;;;;;2.13;1.35;;;;;;;;;;5004863;28;20553;-61
2023/09/01 14:10:04;;;;;;;2.50;1.63;;;;;;;;;;5006667;28;20061;-61
2023/09/01 14:12:58;;;;;;;2.88;1.20;;;;;;;;;;5006169;28;20057;-61
2023/09/01 14:15:52;;;;;;;1.70;1.30;;;;;;;;;;5004937;28;20085;-61
2023/09/01 14:19:02;;;;;;;2.90;1.48;;;;;;;;;;5006758;28;20061;-60
2023/09/01 14:21:56;;;;;;;3.50;1.70;;;;;;;;;;5003288;28;20425;-64
2023/09/01 14:24:43;;;;;;;3.00;1.60;;;;;;;;;;4997060;28;20053;-62
2023/09/01 14:27:36;;;;;;;2.95;1.65;;;;;;;;;;4997977;28;20101;-61
2023/09/01 14:30:24;;;;;;;2.50;1.55;;;;;;;;;;5000539;28;20057;-62
2023/09/01 14:33:18;;;;;;;2.28;1.73;;;;;;;;;;5001226;28;20453;-58
2023/09/01 14:36:14;;;;;;;1.98;1.50;;;;;;;;;;4999379;28;20438;-57
2023/09/01 14:39:08;;;;;;;1.60;1.38;;;;;;;;;;5005389;28;20460;-56
2023/09/01 14:41:55;;;;;;;1.65;1.35;;;;;;;;;;5000941;28;20041;-58
2023/09/01 14:44:49;;;;;;;3.60;1.60;;;;;;;;;;4998746;28;20050;-58
2023/09/01 14:47:36;;;;;;;5.60;2.20;;;;;;;;;;5000628;28;20140;-58
2023/09/01 14:50:30;;;;;;;2.58;1.75;;;;;;;;;;4998828;28;20052;-62
2023/09/01 14:53:17;;;;;;;2.45;1.27;;;;;;;;;;4998789;28;20142;-61
2023/09/01 14:56:15;;;;;;;3.25;1.90;;;;;;;;;;4998234;28;20054;-61
2023/09/01 14:59:02;;;;;;;2.58;1.83;;;;;;;;;;5002640;28;20702;-54
2023/09/01 15:01:56;;;;;;;7.05;1.73;;;;;;;;;;5000621;28;20112;-60
2023/09/01 15:04:43;;;;;;;2.42;1.67;;;;;;;;;;4999268;28;20046;-62
2023/09/01 15:07:37;;;;;;;4.30;1.90;;;;;;;;;;5001205;28;20053;-62
2023/09/01 15:10:24;;;;;;;5.45;1.77;;;;;;;;;;5002988;28;20163;-62
2023/09/01 15:13:22;;;;;;;3.90;1.98;;;;;;;;;;5001887;28;20157;-62
2023/09/01 15:16:10;;;;;;;2.00;1.60;;;;;;;;;;5002713;28;20097;-62
2023/09/01 15:19:12;;;;;;;2.42;1.98;;;;;;;;;;5002473;28;21917;-62
2023/09/01 15:21:58;;;;;;;5.00;2.00;;;;;;;;;;4999749;28;20116;-61
2023/09/01 15:24:52;;;;;;;4.78;2.05;;;;;;;;;;5003517;28;20046;-61
2023/09/01 15:27:39;;;;;;;4.85;2.22;;;;;;;;;;5001332;28;20057;-63
2023/09/01 15:30:33;;;;;;;3.53;1.70;;;;;;;;;;5007436;28;20061;-63
2023/09/01 15:33:00;;;;;;;;;;;;;;;;;;5004287;28;20050;-60
2023/09/01 15:35:57;;;;;;;4.03;2.22;;;;;;;;;;5005109;28;20501;-61
2023/09/01 15:38:45;;;;;;;3.63;1.92;;;;;;;;;;5005289;28;20132;-60
2023/09/01 15:41:39;;;;;;;2.28;1.90;;;;;;;;;;5006628;28;20049;-61
2023/09/01 15:44:33;;;;;;;6.68;1.83;;;;;;;;;;5008173;28;20042;-60
2023/09/01 15:47:20;;;;;;;2.20;2.00;;;;;;;;;;5001727;28;20069;-61
2023/09/01 15:50:15;;;;;;;6.18;1.98;;;;;;;;;;4996358;28;20058;-61
2023/09/01 15:53:12;;;;;;;4.18;2.33;;;;;;;;;;5002066;28;20517;-61
2023/09/01 15:56:12;;;;;;;5.88;2.10;;;;;;;;;;5002017;28;20060;-61
2023/09/01 15:58:40;;;;;;;4.78;2.50;;;;;;;;;;4996972;28;20576;-61
2023/09/01 16:01:34;;;;;;;5.78;2.30;;;;;;;;;;4996426;28;20109;-62
2023/09/01 16:04:21;;;;;;;5.57;2.60;;;;;;;;;;5004112;28;20573;-62
2023/09/01 16:07:15;;;;;;;5.13;2.70;;;;;;;;;;5001395;28;20058;-62
2023/09/01 16:10:02;;;;;;;4.32;2.30;;;;;;;;;;4997538;28;20117;-61
2023/09/01 16:12:36;;;;;;;6.88;2.10;;;;;;;;;;4995448;28;20107;-61
2023/09/01 16:15:30;;;;;;;7.57;2.08;;;;;;;;;;5003234;28;20088;-61
2023/09/01 16:18:18;;;;;;;;;;;;;;;;;;5002529;28;20484;-61
2023/09/01 16:21:18;;;;;;;3.67;2.47;;;;;;;;;;4989738;28;19941;-61
2023/09/01 16:24:06;;;;;;;5.00;2.55;;;;;;;;;;4997703;28;20081;-61
2023/09/01 16:26:40;;;;;;;3.80;2.72;;;;;;;;;;4990253;28;20058;-61
2023/09/01 16:29:07;;;;;;;;;;;;;;;;;;4986621;28;20054;-60
2023/09/01 16:32:01;;;;;;;4.95;2.63;;;;;;;;;;4969742;28;20413;-61
2023/09/01 16:34:48;;;;;;;5.25;2.63;;;;;;;;;;4995062;28;20058;-64
2023/09/01 16:37:51;;;;;;;5.55;2.70;;;;;;;;;;5002484;28;20061;-61
2023/09/01 16:40:25;;;;;;;7.80;2.80;;;;;;;;;;4989620;28;20129;-61
2023/09/01 16:42:53;;;;;;;6.38;2.58;;;;;;;;;;5002387;28;20062;-63
2023/09/01 16:45:27;;;;;;;4.22;2.05;;;;;;;;;;5002824;28;20054;-62
2023/09/01 16:47:55;;;;;;;;;;;;;;;;;;5000384;28;20054;-61
2023/09/01 16:50:22;;;;;;;5.00;2.60;;;;;;;;;;5002226;28;19944;-61
2023/09/01 16:52:59;;;;;;;4.68;2.40;;;;;;;;;;4997451;28;20058;-61
2023/09/01 16:55:27;;;;;;;2.92;2.10;;;;;;;;;;4999290;28;20548;-63
2023/09/01 16:58:25;;;;;;;4.65;2.05;;;;;;;;;;5003285;28;20053;-60
2023/09/01 17:00:53;;;;;;;5.43;2.30;;;;;;;;;;4993938;28;20426;-60
2023/09/01 17:03:47;;;;;;;6.15;2.38;;;;;;;;;;4995650;28;20141;-60